»·PEaware :: SWA1688 KLAS-KBUR

SWA1688 :: KLAS-KBUR

FLIGHT INFORMATION

Flight Status: Arrived
Operator:
Southwest Airlines
More flights by this operator :: More flights under this callsign
Pilot: Kyle M. (9350)
Aircraft: BOEING 737-800
(B738)
More flights by this aircraft type
Origin: KLAS McCarran Intl
United States
Destination: KBUR Bob Hope-Burbank
United States
More flights between these airports :: More routes between these airports
Route: BOACH8 WHIGG KREME JANNY4
File this flight plan on PilotEdge
Remarks: CptCanada - Yotutube Livestreams!
Altitude:
(Current/Filed)
26,000ft
Speed:
(Current/Filed)
450kts
Departed: 21-Jul-18 01:12 PM
Arrived: 21-Jul-18 01:58 PM
Distance/Time
Traveled:
193nm/0:46
Distance/Time
To Go:
Arrived

Flight Plot

Page will automatically refresh every two minutes.

Flight plan parsing failed; only flown route is shown


Map Options




Map Legend


Flown Route
Filed Route
Departure Airport
Arrival Airport
Navaid (VOR, NDB)
Fix

Horizontal Profiles

Position Reports

Time Latitude Longitude Heading Altitude Ground
Speed
21-Jul-18 12:52 36.081848 -115.126392 179 2148ft 0kts
21-Jul-18 12:53 36.081848 -115.126392 179 2148ft 0kts
21-Jul-18 12:54 36.081948 -115.126246 244 2148ft 2kts
21-Jul-18 12:55 36.082251 -115.125606 240 2149ft 2kts
21-Jul-18 12:56 36.082425 -115.125534 93 2148ft 0kts
21-Jul-18 12:57 36.082422 -115.125608 89 2149ft 0kts
21-Jul-18 12:58 36.082422 -115.125607 89 2148ft 0kts
21-Jul-18 12:59 36.082422 -115.125607 89 2148ft 0kts
21-Jul-18 13:00 36.082422 -115.125607 89 2148ft 0kts
21-Jul-18 13:01 36.082422 -115.125607 89 2148ft 0kts
21-Jul-18 13:02 36.082422 -115.125607 89 2148ft 0kts
21-Jul-18 13:03 36.082422 -115.125607 89 2149ft 0kts
21-Jul-18 13:04 36.082422 -115.125607 89 2149ft 0kts
21-Jul-18 13:05 36.082422 -115.125607 89 2149ft 0kts
21-Jul-18 13:06 36.082422 -115.125608 89 2149ft 0kts
21-Jul-18 13:07 36.082418 -115.126246 98 2149ft 1kts
21-Jul-18 13:08 36.082653 -115.126409 179 2149ft 0kts
21-Jul-18 13:09 36.082653 -115.126409 179 2149ft 0kts
21-Jul-18 13:10 36.080122 -115.126399 180 2149ft 15kts
21-Jul-18 13:11 36.078250 -115.125772 91 2149ft 13kts
21-Jul-18 13:12 36.076401 -115.122147 268 2149ft 17kts
21-Jul-18 13:13 36.077195 -115.168286 271 3167ft 197kts
21-Jul-18 13:14 36.078506 -115.245550 262 5499ft 255kts
21-Jul-18 13:15 36.032199 -115.307334 186 8548ft 274kts
21-Jul-18 13:16 35.955671 -115.306622 186 11785ft 288kts
21-Jul-18 13:17 35.868160 -115.315421 184 14001ft 327kts
21-Jul-18 13:18 35.775675 -115.308546 173 17273ft 342kts
21-Jul-18 13:19 35.680206 -115.309470 202 20334ft 357kts
21-Jul-18 13:20 35.606201 -115.392808 225 23053ft 375kts
21-Jul-18 13:21 35.534678 -115.488737 224 25548ft 387kts
21-Jul-18 13:22 35.457517 -115.585419 221 26113ft 413kts
21-Jul-18 13:23 35.372436 -115.685581 220 26108ft 438kts
21-Jul-18 13:24 35.282130 -115.791802 221 26101ft 457kts
21-Jul-18 13:25 35.191132 -115.898903 221 26073ft 457kts
21-Jul-18 13:26 35.099714 -116.006531 221 26072ft 457kts
21-Jul-18 13:27 35.008944 -116.113514 221 26048ft 431kts
21-Jul-18 13:28 34.928043 -116.209270 224 24309ft 396kts
21-Jul-18 13:29 34.880929 -116.315434 242 23796ft 398kts
21-Jul-18 13:30 34.833829 -116.436721 242 23430ft 395kts
21-Jul-18 13:31 34.787374 -116.557836 248 23028ft 397kts
21-Jul-18 13:32 34.773360 -116.680888 261 22174ft 395kts
21-Jul-18 13:33 34.761281 -116.812826 260 21267ft 390kts
21-Jul-18 13:34 34.748657 -116.942935 260 20370ft 385kts
21-Jul-18 13:35 34.735791 -117.071405 260 19482ft 380kts
21-Jul-18 13:36 34.724405 -117.183435 260 18709ft 376kts
21-Jul-18 13:37 34.711580 -117.308090 261 17830ft 370kts
21-Jul-18 13:38 34.698872 -117.430222 261 16979ft 362kts
21-Jul-18 13:39 34.686259 -117.550102 261 16148ft 355kts
21-Jul-18 13:40 34.673787 -117.667827 260 15281ft 351kts
21-Jul-18 13:41 34.661270 -117.785829 260 14463ft 352kts
21-Jul-18 13:42 34.648622 -117.903608 260 13461ft 353kts
21-Jul-18 13:43 34.636012 -118.019187 260 12053ft 344kts
21-Jul-18 13:44 34.617311 -118.130853 253 10711ft 333kts
21-Jul-18 13:45 34.594624 -118.232608 251 9543ft 287kts
21-Jul-18 13:46 34.574210 -118.323486 253 8380ft 270kts
21-Jul-18 13:47 34.554378 -118.411524 252 7987ft 277kts
21-Jul-18 13:48 34.502690 -118.472928 212 7435ft 262kts
21-Jul-18 13:49 34.441091 -118.519707 212 6752ft 260kts
21-Jul-18 13:50 34.379908 -118.566551 212 6130ft 264kts
21-Jul-18 13:51 34.317865 -118.614695 210 5942ft 251kts
21-Jul-18 13:52 34.257881 -118.637934 173 5156ft 236kts
21-Jul-18 13:53 34.196005 -118.628128 158 3902ft 194kts
21-Jul-18 13:54 34.190378 -118.579095 62 3559ft 176kts
21-Jul-18 13:55 34.199749 -118.524249 92 2949ft 170kts
21-Jul-18 13:56 34.199286 -118.470280 93 2434ft 141kts
21-Jul-18 13:57 34.198629 -118.423089 93 1700ft 139kts
21-Jul-18 13:58 34.198067 -118.376294 94 936ft 136kts
21-Jul-18 13:59 34.197226 -118.352001 167 784ft 7kts
21-Jul-18 14:00 34.196866 -118.351977 180 784ft 0kts

Navigation Log

Ident Type
Flight plan parsing failed, navigation log unavailable